Al Ain International Airport


Codes: OMAL/AAN
Name: Al Ain International Airport
City: Al Ain
Country: United Arab Emirates
Elevation: 869 ft.
Wikipedia:

Photos at Al Ain International Airport


   Photos courtesy of SpottingLog. You can add your own sightings and photos by signing up for a free trial today.



No photos found.

Weather at Al Ain International Airport


Time (UTC)DescriptionTempratureWindCloud coverageVisibilityPressureHumidity
16-Jun-2024 12:00Few Clouds45°C4 mph, W14%10000m1000hPa8%
16-Jun-2024 15:00Clear Sky42°C18 mph, N9%10000m1000hPa11%
16-Jun-2024 18:00Clear Sky37°C7 mph, NE3%10000m1001hPa17%
16-Jun-2024 21:00Clear Sky35°C9 mph, NE0%10000m1000hPa16%
17-Jun-2024 00:00Clear Sky34°C9 mph, S0%10000m1001hPa16%
17-Jun-2024 03:00Clear Sky35°C11 mph, SE1%10000m1003hPa35%
17-Jun-2024 06:00Clear Sky41°C11 mph, S0%10000m1002hPa18%
17-Jun-2024 09:00Clear Sky45°C9 mph, SW0%10000m1001hPa11%
17-Jun-2024 12:00Clear Sky45°C9 mph, W0%10000m998hPa9%
17-Jun-2024 15:00Overcast Clouds41°C18 mph, N86%10000m999hPa15%
17-Jun-2024 18:00Broken Clouds37°C9 mph, N64%10000m1001hPa19%
17-Jun-2024 21:00Clear Sky36°C4 mph, NE0%10000m1000hPa19%
18-Jun-2024 00:00Clear Sky35°C13 mph, SE0%10000m1001hPa19%
18-Jun-2024 03:00Clear Sky36°C11 mph, S1%10000m1002hPa18%
18-Jun-2024 06:00Clear Sky42°C11 mph, S1%10000m1002hPa13%
18-Jun-2024 09:00Few Clouds45°C7 mph, SW12%10000m1001hPa10%
18-Jun-2024 12:00Clear Sky46°C4 mph, SW10%10000m999hPa9%
18-Jun-2024 15:00Broken Clouds41°C16 mph, NW76%10000m1000hPa15%
18-Jun-2024 18:00Scattered Clouds36°C9 mph, N39%10000m1001hPa24%
18-Jun-2024 21:00Clear Sky36°C9 mph, N0%10000m1000hPa23%
19-Jun-2024 00:00Clear Sky33°C2 mph, NW0%10000m1001hPa28%
19-Jun-2024 03:00Clear Sky35°C9 mph, SE5%10000m1002hPa23%
19-Jun-2024 06:00Clear Sky42°C9 mph, SW5%10000m1001hPa11%
19-Jun-2024 09:00Clear Sky46°C9 mph, W2%10000m999hPa9%
19-Jun-2024 12:00Clear Sky47°C22 mph, NW1%10000m997hPa8%
19-Jun-2024 15:00Clear Sky40°C16 mph, NW0%10000m998hPa16%
19-Jun-2024 18:00Clear Sky35°C7 mph, N0%10000m999hPa23%
19-Jun-2024 21:00Clear Sky34°C7 mph, NE0%10000m998hPa24%
20-Jun-2024 00:00Clear Sky33°C4 mph, NE2%10000m998hPa20%
20-Jun-2024 03:00Clear Sky37°C2 mph, SE6%10000m999hPa13%
20-Jun-2024 06:00Clear Sky43°C7 mph, W5%10000m999hPa8%
20-Jun-2024 09:00Clear Sky46°C13 mph, W0%10000m997hPa6%
20-Jun-2024 12:00Clear Sky46°C18 mph, NW0%10000m995hPa7%
20-Jun-2024 15:00Clear Sky40°C11 mph, NW0%10000m996hPa16%
20-Jun-2024 18:00Clear Sky35°C4 mph, NW1%10000m998hPa28%
20-Jun-2024 21:00Clear Sky33°C2 mph, NW5%10000m997hPa27%
21-Jun-2024 00:00Clear Sky33°C7 mph, E4%10000m997hPa26%
21-Jun-2024 03:00Clear Sky37°C7 mph, SE3%10000m998hPa16%
21-Jun-2024 06:00Clear Sky45°C9 mph, S1%10000m997hPa7%
21-Jun-2024 09:00Clear Sky47°C11 mph, W0%10000m996hPa5%